createdAt,value
2019-02-02T00:01:39.119Z,110.50
2019-02-02T00:04:11.298Z,102.13
2019-02-02T00:06:44.061Z,120.40
2019-02-02T00:09:16.971Z,105.07
2019-02-02T00:11:48.774Z,111.57
2019-02-02T00:14:20.062Z,99.93
2019-02-02T00:16:53.118Z,105.90
2019-02-02T00:19:24.501Z,100.97
2019-02-02T00:21:55.693Z,101.10
2019-02-02T00:24:27.272Z,101.10
2019-02-02T00:26:58.921Z,95.10
2019-02-02T00:29:30.492Z,99.03
2019-02-02T00:32:01.977Z,104.83
2019-02-02T00:34:33.451Z,98.27
2019-02-02T00:37:05.214Z,92.93
2019-02-02T00:39:36.691Z,98.10
2019-02-02T00:42:08.004Z,99.63
2019-02-02T00:44:39.631Z,92.57
2019-02-02T00:47:11.008Z,92.20
2019-02-02T00:49:42.671Z,86.13
2019-02-02T00:52:13.989Z,91.60
2019-02-02T00:54:46.398Z,93.47
2019-02-02T00:57:17.638Z,92.17
2019-02-02T00:59:49.096Z,89.90
2019-02-02T01:02:21.423Z,84.67
2019-02-02T01:04:53.062Z,86.67
2019-02-02T01:07:24.541Z,89.73
2019-02-02T01:09:55.913Z,82.90
2019-02-02T01:12:27.430Z,80.03
2019-02-02T01:14:58.697Z,79.90
2019-02-02T01:17:30.066Z,92.17
2019-02-02T01:20:01.738Z,88.80
2019-02-02T01:22:36.001Z,91.63
2019-02-02T01:25:07.748Z,76.23
2019-02-02T01:27:38.998Z,79.50
2019-02-02T01:30:12.202Z,81.47
2019-02-02T01:32:43.100Z,79.27
2019-02-02T01:35:16.810Z,81.07
2019-02-02T01:37:50.609Z,82.10
2019-02-02T01:40:21.979Z,80.13
2019-02-02T01:42:54.600Z,81.83
2019-02-02T01:45:26.080Z,93.60
2019-02-02T01:47:58.704Z,94.17
2019-02-02T01:50:32.248Z,92.70
2019-02-02T01:53:06.537Z,86.80
2019-02-02T01:55:41.108Z,84.60
2019-02-02T01:58:16.985Z,80.87
2019-02-02T02:00:45.824Z,83.40
2019-02-02T02:03:17.253Z,86.20
2019-02-02T02:05:49.903Z,87.23
2019-02-02T02:17:18.851Z,78.00
2019-02-02T03:18:49.756Z,91.17
2019-02-02T03:21:21.152Z,98.47
2019-02-02T03:26:47.545Z,94.83
2019-02-02T03:29:19.620Z,87.53
2019-02-02T03:31:50.290Z,104.67
2019-02-02T03:34:21.026Z,98.27
2019-02-02T03:36:53.289Z,99.00
2019-02-02T03:39:37.037Z,102.43
2019-02-02T03:42:04.979Z,102.43
2019-02-02T03:44:36.435Z,96.37
2019-02-02T03:47:07.749Z,95.10
2019-02-02T03:49:39.222Z,97.23
2019-02-02T03:52:11.677Z,94.73
2019-02-02T03:54:43.467Z,96.07
2019-02-02T03:57:14.939Z,105.40
2019-02-02T03:59:46.671Z,102.80
2019-02-02T04:02:17.944Z,100.03
2019-02-02T04:04:49.381Z,88.47
2019-02-02T04:07:20.701Z,97.50
2019-02-02T04:09:51.966Z,97.17
2019-02-02T04:12:23.742Z,95.20
2019-02-02T06:10:45.622Z,86.07
2019-02-02T09:23:07.486Z,75.83
2019-02-02T09:25:38.638Z,73.27
2019-02-02T09:28:10.002Z,79.67
2019-02-02T09:30:41.257Z,74.50
2019-02-02T09:33:12.874Z,71.97
2019-02-02T09:35:44.355Z,75.40
2019-02-02T09:38:16.550Z,73.83
2019-02-02T09:40:47.912Z,74.37
2019-02-02T09:43:19.208Z,80.87
2019-02-02T09:45:50.910Z,75.17
2019-02-02T09:48:22.140Z,76.43
2019-02-02T09:50:53.812Z,75.23
2019-02-02T09:53:25.129Z,81.70
2019-02-02T09:55:57.007Z,78.43
2019-02-02T09:58:28.525Z,74.60
2019-02-02T10:00:59.992Z,85.20
2019-02-02T10:03:53.186Z,97.43
2019-02-02T10:06:24.873Z,82.63
2019-02-02T10:08:56.115Z,79.87
2019-02-02T10:51:01.578Z,95.40
2019-02-02T10:53:33.112Z,103.13
2019-02-02T10:56:04.609Z,128.03
2019-02-02T10:58:35.376Z,123.00
2019-02-02T11:01:06.563Z,134.80
2019-02-02T11:03:37.930Z,142.03
2019-02-02T11:14:48.020Z,162.17
2019-02-02T11:17:19.298Z,135.70
2019-02-02T11:19:51.105Z,134.50
2019-02-02T11:22:22.541Z,120.13
2019-02-02T11:24:53.816Z,116.47
2019-02-02T11:27:25.922Z,125.63
2019-02-02T11:51:06.175Z,90.23
2019-02-02T11:53:37.669Z,89.23
2019-02-02T11:56:08.924Z,86.50
2019-02-02T11:58:40.392Z,86.53
2019-02-02T12:01:11.727Z,87.87
2019-02-02T12:03:43.040Z,83.83
2019-02-02T12:06:15.618Z,85.33
2019-02-02T12:08:49.295Z,87.40
2019-02-02T12:11:19.860Z,83.97
2019-02-02T12:13:51.238Z,96.83
2019-02-02T12:16:24.019Z,85.03
2019-02-02T12:18:58.142Z,92.77
2019-02-02T12:21:31.285Z,90.23
2019-02-02T12:24:13.364Z,87.77
2019-02-02T12:26:36.071Z,89.00
2019-02-02T12:29:07.509Z,103.37
2019-02-02T12:31:38.865Z,85.53
2019-02-02T12:34:10.446Z,92.50
2019-02-02T12:36:42.617Z,89.93
2019-02-02T12:39:13.901Z,85.07
2019-02-02T12:41:45.176Z,85.73
2019-02-02T12:44:16.542Z,80.90
2019-02-02T12:46:47.903Z,89.17
2019-02-02T12:49:19.346Z,94.03
2019-02-02T12:51:50.710Z,89.17
2019-02-02T12:54:22.026Z,86.87
2019-02-02T12:56:53.375Z,90.07
2019-02-02T12:59:25.768Z,91.57
2019-02-02T13:01:57.071Z,88.40
2019-02-02T13:04:29.357Z,94.30
2019-02-02T13:07:00.511Z,86.80
2019-02-02T13:09:33.974Z,85.00
2019-02-02T13:12:06.159Z,93.50
2019-02-02T13:14:36.982Z,86.60
2019-02-02T13:17:08.160Z,88.00
2019-02-02T13:19:39.837Z,93.27
2019-02-02T13:22:11.615Z,86.50
2019-02-02T13:24:45.405Z,95.50
2019-02-02T13:27:15.955Z,97.00
2019-02-02T13:29:46.894Z,99.10
2019-02-02T13:32:17.491Z,94.57
2019-02-02T13:34:48.013Z,99.30
2019-02-02T13:37:19.046Z,91.20
2019-02-02T13:39:51.747Z,98.87
2019-02-02T13:42:22.479Z,95.80
2019-02-02T13:44:53.043Z,91.53
2019-02-02T13:47:23.606Z,93.57
2019-02-02T13:49:54.454Z,98.33
2019-02-02T13:52:26.584Z,98.70
2019-02-02T13:54:58.840Z,97.83
2019-02-02T13:57:30.446Z,91.10
2019-02-02T14:00:04.655Z,99.83
2019-02-02T14:02:36.982Z,131.93
2019-02-02T14:05:08.774Z,116.37
2019-02-02T14:07:40.736Z,186.50
2019-02-02T14:10:12.681Z,179.93
2019-02-02T14:12:45.576Z,150.47
2019-02-02T14:15:20.326Z,168.90
2019-02-02T14:17:52.272Z,165.80
2019-02-02T14:20:24.048Z,174.37
2019-02-02T14:22:55.864Z,177.60
2019-02-02T14:25:27.221Z,164.70
2019-02-02T14:27:58.510Z,156.50
2019-02-02T14:30:30.368Z,148.57
2019-02-02T14:33:13.300Z,151.60
2019-02-02T14:35:35.000Z,150.60
2019-02-02T14:38:10.618Z,151.33
2019-02-02T14:40:43.157Z,149.00
2019-02-02T14:43:14.584Z,153.67
2019-02-02T14:45:45.857Z,150.87
2019-02-02T14:48:17.082Z,147.47
2019-02-02T14:50:48.579Z,144.50
2019-02-02T14:53:19.517Z,142.03
2019-02-02T14:55:50.150Z,128.93
2019-02-02T14:58:20.661Z,121.30
2019-02-02T15:00:53.848Z,120.70
2019-02-02T15:03:25.742Z,123.33
2019-02-02T15:05:56.065Z,111.23
2019-02-02T15:08:27.251Z,125.60
2019-02-02T15:10:58.655Z,121.20
2019-02-02T15:13:32.543Z,113.83
2019-02-02T15:16:03.913Z,119.17
2019-02-02T15:18:36.217Z,118.00
2019-02-02T15:21:08.140Z,114.93
2019-02-02T15:23:40.652Z,107.60
2019-02-02T15:26:14.242Z,117.00
2019-02-02T15:28:45.994Z,109.83
2019-02-02T15:31:17.782Z,286.23
2019-02-02T15:33:50.627Z,141.20
2019-02-02T15:36:22.111Z,145.20
2019-02-02T15:38:58.315Z,150.47
2019-02-02T15:41:36.892Z,174.70
2019-02-02T15:44:08.486Z,171.00
2019-02-02T15:46:48.724Z,181.93
2019-02-02T15:49:12.427Z,185.03
2019-02-02T15:51:44.322Z,180.77
2019-02-02T15:54:18.761Z,172.07
2019-02-02T15:56:50.163Z,184.73
2019-02-02T15:59:21.819Z,174.90
2019-02-02T16:01:54.017Z,172.93
2019-02-02T16:04:24.982Z,181.60
2019-02-02T16:06:55.429Z,190.60
2019-02-02T16:09:26.712Z,181.40
2019-02-02T16:11:58.205Z,180.23
2019-02-02T16:14:29.858Z,173.33
2019-02-02T16:17:03.011Z,175.10
2019-02-02T16:19:36.004Z,176.33
2019-02-02T16:22:07.591Z,180.50
2019-02-02T16:24:42.164Z,177.17
2019-02-02T16:27:13.705Z,177.30
2019-02-02T16:29:45.241Z,182.47
2019-02-02T16:32:16.580Z,183.70
2019-02-02T16:34:48.889Z,179.63
2019-02-02T16:37:20.850Z,196.73
2019-02-02T16:39:59.135Z,197.83
2019-02-02T16:42:30.744Z,196.40
2019-02-02T16:45:02.123Z,191.37
2019-02-02T16:47:35.379Z,209.50
2019-02-02T16:50:10.904Z,200.03
2019-02-02T16:52:42.745Z,214.67
2019-02-02T16:55:16.240Z,223.50
2019-02-02T16:57:49.543Z,223.93
2019-02-02T17:00:31.041Z,264.40
2019-02-02T17:03:06.805Z,237.70
2019-02-02T17:05:37.357Z,255.90
2019-02-02T17:08:16.677Z,250.67
2019-02-02T17:10:42.448Z,258.63
2019-02-02T17:13:13.568Z,255.10
2019-02-02T17:15:44.255Z,250.33
2019-02-02T17:21:29.663Z,242.40
2019-02-02T17:24:02.838Z,253.43
2019-02-02T17:26:34.120Z,250.50
2019-02-02T17:29:05.598Z,264.63
2019-02-02T17:31:39.694Z,258.17
2019-02-02T17:34:12.067Z,247.37
2019-02-02T17:36:44.508Z,252.67
2019-02-02T17:39:17.428Z,245.50
2019-02-02T17:41:53.647Z,257.87
2019-02-02T17:44:28.307Z,271.33
2019-02-02T17:47:01.117Z,280.63
2019-02-02T17:49:37.974Z,262.73
2019-02-02T17:52:12.506Z,251.40
2019-02-02T17:54:45.597Z,244.33
2019-02-02T17:57:17.217Z,239.03
2019-02-02T17:59:48.953Z,223.70
2019-02-02T18:02:20.454Z,241.07
2019-02-02T18:04:51.698Z,228.37
2019-02-02T18:07:23.119Z,195.83
2019-02-02T18:09:54.453Z,231.10
2019-02-02T18:12:25.955Z,213.73
2019-02-02T18:14:57.431Z,211.87
2019-02-02T18:17:28.842Z,198.80
2019-02-02T18:20:00.359Z,217.27
2019-02-02T18:22:32.801Z,213.73
2019-02-02T18:25:04.480Z,207.83
2019-02-02T18:27:36.361Z,242.07
2019-02-02T18:30:10.845Z,226.73
2019-02-02T18:32:43.047Z,206.93
2019-02-02T18:35:15.149Z,235.73
2019-02-02T18:37:46.773Z,212.63
2019-02-02T18:40:18.715Z,202.13
2019-02-02T18:42:51.159Z,211.57
2019-02-02T18:45:24.403Z,234.77
2019-02-02T18:47:55.915Z,208.53
2019-02-02T18:50:31.290Z,199.00
2019-02-02T18:53:02.906Z,204.00
2019-02-02T18:55:45.712Z,209.43
2019-02-02T18:58:17.377Z,198.07
2019-02-02T19:00:48.807Z,200.53
2019-02-02T19:03:20.299Z,212.47
2019-02-02T19:05:51.628Z,200.57
2019-02-02T19:08:24.889Z,184.30
2019-02-02T19:10:56.075Z,181.63
2019-02-02T19:13:27.461Z,180.40
2019-02-02T19:15:58.738Z,166.57
2019-02-02T19:18:31.012Z,176.03
2019-02-02T19:21:02.754Z,170.80
2019-02-02T19:23:34.111Z,181.00
2019-02-02T19:26:05.415Z,160.40
2019-02-02T19:28:40.021Z,169.03
2019-02-02T19:31:10.430Z,172.80
2019-02-02T19:33:41.861Z,162.83
2019-02-02T19:36:13.223Z,179.67
2019-02-02T19:38:45.037Z,172.77
2019-02-02T19:41:16.421Z,164.47
2019-02-02T19:43:47.701Z,159.90
2019-02-02T19:46:19.145Z,164.97
2019-02-02T19:48:50.509Z,155.23
2019-02-02T19:51:22.527Z,149.83
2019-02-02T19:53:53.920Z,142.27
2019-02-02T19:56:28.613Z,144.60
2019-02-02T19:59:00.412Z,135.70
2019-02-02T20:01:34.297Z,132.53
2019-02-02T20:04:06.018Z,137.93
2019-02-02T20:06:39.997Z,130.27
2019-02-02T20:09:11.136Z,129.97
2019-02-02T20:11:45.015Z,126.23
2019-02-02T20:14:21.722Z,129.00
2019-02-02T20:17:04.291Z,118.73
2019-02-02T20:19:30.657Z,128.40
2019-02-02T20:22:01.310Z,131.87
2019-02-02T20:24:35.377Z,132.83
2019-02-02T20:27:06.016Z,143.93
2019-02-02T20:29:38.329Z,139.27
2019-02-02T20:32:11.404Z,132.23
2019-02-02T20:34:44.476Z,125.80
2019-02-02T20:37:18.289Z,120.30
2019-02-02T20:39:50.963Z,116.60
2019-02-02T20:42:26.120Z,117.43
2019-02-02T20:44:56.781Z,108.70
2019-02-02T20:47:27.939Z,110.67
2019-02-02T20:50:01.836Z,116.57
2019-02-02T20:52:32.773Z,121.30
2019-02-02T20:55:03.943Z,116.73
2019-02-02T20:57:39.794Z,118.23
2019-02-02T21:00:14.944Z,119.70
2019-02-02T21:02:46.699Z,117.20
2019-02-02T21:05:18.253Z,124.07
2019-02-02T21:07:49.026Z,127.67
2019-02-02T21:10:21.540Z,129.80
2019-02-02T21:12:52.215Z,118.20
2019-02-02T21:15:22.928Z,123.07
2019-02-02T21:17:53.604Z,124.13
2019-02-02T21:20:26.678Z,126.97
2019-02-02T21:22:57.533Z,122.27
2019-02-02T21:25:28.185Z,118.63
2019-02-02T21:27:58.650Z,124.53
2019-02-02T21:30:30.466Z,132.70
2019-02-02T21:33:01.297Z,127.37
2019-02-02T21:35:33.422Z,124.53
2019-02-02T21:38:07.470Z,133.63
2019-02-02T21:40:38.393Z,129.70
2019-02-02T21:43:09.121Z,130.43
2019-02-02T21:45:40.525Z,125.17
2019-02-02T21:48:13.704Z,128.27
2019-02-02T21:50:45.098Z,140.70
2019-02-02T21:53:16.073Z,132.10
2019-02-02T21:55:48.467Z,123.90
2019-02-02T21:58:19.221Z,132.17
2019-02-02T22:00:50.690Z,124.67
2019-02-02T22:03:21.711Z,133.23
2019-02-02T22:05:52.249Z,130.57
2019-02-02T22:08:30.023Z,136.33
2019-02-02T22:11:04.117Z,140.13
2019-02-02T22:13:36.527Z,130.07
2019-02-02T22:16:10.069Z,129.17
2019-02-02T22:18:42.025Z,134.33
2019-02-02T22:21:15.707Z,138.20
2019-02-02T22:23:47.838Z,138.80
2019-02-02T22:26:18.588Z,135.57
2019-02-02T22:28:50.862Z,136.77
2019-02-02T22:31:21.799Z,127.23
2019-02-02T22:33:54.654Z,132.13
2019-02-02T22:36:27.883Z,127.83
2019-02-02T22:39:02.004Z,123.00
2019-02-02T22:41:37.385Z,127.47
2019-02-02T22:44:08.062Z,117.27
2019-02-02T22:46:40.208Z,118.00
2019-02-02T22:49:11.857Z,114.03
2019-02-02T22:51:45.265Z,109.30
2019-02-02T22:54:16.609Z,118.87
2019-02-02T22:56:47.674Z,116.37
2019-02-02T22:59:18.248Z,110.03
2019-02-02T23:01:51.759Z,107.40
2019-02-02T23:04:41.433Z,104.33
2019-02-02T23:07:32.003Z,97.17
2019-02-02T23:10:49.763Z,99.57
2019-02-02T23:13:40.223Z,99.90
2019-02-02T23:16:28.650Z,97.37
2019-02-02T23:19:06.828Z,92.47
2019-02-02T23:21:46.461Z,99.30
2019-02-02T23:24:14.065Z,97.87
2019-02-02T23:26:44.857Z,93.90
2019-02-02T23:29:16.151Z,99.90
2019-02-02T23:31:47.136Z,98.20
2019-02-02T23:34:18.624Z,96.80
